LHPP 061045Z AUTO VRB02KT CAVOK 20/11 Q1029
From batch tds/metars/production/2022/10/6/h11_m26_metars.cache.csv.gz
Observed at (about 1 hour ago)
Identifier LHPP
LHPP 061015Z AUTO 00000KT CAVOK 19/11 Q1029
From batch tds/metars/production/2022/10/6/h10_m51_metars.cache.csv.gz
Observed at (about 1 hour ago)
Identifier LHPP
LHPP 060945Z AUTO VRB01KT CAVOK 18/10 Q1029
From batch tds/metars/production/2022/10/6/h10_m24_metars.cache.csv.gz
Observed at (about 2 hours ago)
Identifier LHPP
LHPP 060915Z AUTO 00000KT CAVOK 17/11 Q1029
From batch tds/metars/production/2022/10/6/h09_m56_metars.cache.csv.gz
Observed at (about 2 hours ago)
Identifier LHPP
LHPP 060845Z AUTO VRB01KT CAVOK 15/10 Q1029
From batch tds/metars/production/2022/10/6/h09_m29_metars.cache.csv.gz
Observed at (about 3 hours ago)
Identifier LHPP
LHPP 060815Z AUTO VRB02KT CAVOK 15/10 Q1029
From batch tds/metars/production/2022/10/6/h08_m51_metars.cache.csv.gz
Observed at (about 3 hours ago)
Identifier LHPP
LHPP 060745Z AUTO VRB03KT CAVOK 14/10 Q1028
From batch tds/metars/production/2022/10/6/h08_m23_metars.cache.csv.gz
Observed at (about 4 hours ago)
Identifier LHPP
LHPP 060715Z AUTO VRB02KT CAVOK 14/09 Q1028
From batch tds/metars/production/2022/10/6/h07_m52_metars.cache.csv.gz
Observed at (about 4 hours ago)
Identifier LHPP
LHPP 060645Z AUTO VRB02KT CAVOK 13/09 Q1028
From batch tds/metars/production/2022/10/6/h07_m27_metars.cache.csv.gz
Observed at (about 5 hours ago)
Identifier LHPP
LHPP 060615Z AUTO 00000KT CAVOK 11/09 Q1028
From batch tds/metars/production/2022/10/6/h06_m49_metars.cache.csv.gz
Observed at (about 5 hours ago)
Identifier LHPP
LHPP 060545Z AUTO 09002KT CAVOK 10/08 Q1027
From batch tds/metars/production/2022/10/6/h06_m20_metars.cache.csv.gz
Observed at (about 6 hours ago)
Identifier LHPP
LHPP 060515Z AUTO 08004KT CAVOK 09/07 Q1027
From batch tds/metars/production/2022/10/6/h05_m57_metars.cache.csv.gz
Observed at (about 6 hours ago)
Identifier LHPP
LHPP 060445Z AUTO 06005KT CAVOK 09/07 Q1027
From batch tds/metars/production/2022/10/6/h05_m21_metars.cache.csv.gz
Observed at (about 7 hours ago)
Identifier LHPP
LHPP 060415Z AUTO 07005KT CAVOK 10/08 Q1027
From batch tds/metars/production/2022/10/6/h04_m54_metars.cache.csv.gz
Observed at (about 7 hours ago)
Identifier LHPP
LHPP 060345Z AUTO 06005KT CAVOK 09/07 Q1027
From batch tds/metars/production/2022/10/6/h04_m25_metars.cache.csv.gz
Observed at (about 8 hours ago)
Identifier LHPP
LHPP 060315Z AUTO 06005KT CAVOK 10/07 Q1027
From batch tds/metars/production/2022/10/6/h03_m51_metars.cache.csv.gz
Observed at (about 8 hours ago)
Identifier LHPP
LHPP 060245Z AUTO 06005KT CAVOK 10/07 Q1027
From batch tds/metars/production/2022/10/6/h03_m20_metars.cache.csv.gz
Observed at (about 9 hours ago)
Identifier LHPP
LHPP 060215Z AUTO 07006KT CAVOK 10/07 Q1027
From batch tds/metars/production/2022/10/6/h02_m52_metars.cache.csv.gz
Observed at (about 9 hours ago)
Identifier LHPP
LHPP 060145Z AUTO 07006KT CAVOK 10/07 Q1027
From batch tds/metars/production/2022/10/6/h02_m26_metars.cache.csv.gz
Observed at (about 10 hours ago)
Identifier LHPP
LHPP 060115Z AUTO 08005KT CAVOK 11/07 Q1027
From batch tds/metars/production/2022/10/6/h01_m51_metars.cache.csv.gz
Observed at (about 10 hours ago)
Identifier LHPP
LHPP 060045Z AUTO 10004KT 070V140 CAVOK 12/08 Q1027
From batch tds/metars/production/2022/10/6/h01_m22_metars.cache.csv.gz
Observed at (about 11 hours ago)
Identifier LHPP
LHPP 060015Z AUTO 12004KT CAVOK 11/08 Q1027
From batch tds/metars/production/2022/10/6/h00_m59_metars.cache.csv.gz
Observed at (about 11 hours ago)
Identifier LHPP
LHPP 052345Z AUTO 12003KT CAVOK 12/08 Q1027
From batch tds/metars/production/2022/10/6/h00_m19_metars.cache.csv.gz
Observed at (about 12 hours ago)
Identifier LHPP
LHPP 052315Z AUTO 13004KT CAVOK 12/08 Q1027
From batch tds/metars/production/2022/10/5/h23_m58_metars.cache.csv.gz
Observed at (about 12 hours ago)
Identifier LHPP
LHPP 052245Z AUTO 12002KT CAVOK 11/08 Q1027
From batch tds/metars/production/2022/10/5/h23_m20_metars.cache.csv.gz
Observed at (about 13 hours ago)
Identifier LHPP
LHPP 052215Z AUTO 12004KT CAVOK 12/08 Q1027
From batch tds/metars/production/2022/10/5/h22_m59_metars.cache.csv.gz
Observed at (about 13 hours ago)
Identifier LHPP
LHPP 052145Z AUTO 11005KT CAVOK 11/08 Q1028
From batch tds/metars/production/2022/10/5/h22_m23_metars.cache.csv.gz
Observed at (about 14 hours ago)
Identifier LHPP
LHPP 052115Z AUTO 10003KT CAVOK 11/08 Q1028
From batch tds/metars/production/2022/10/5/h21_m56_metars.cache.csv.gz
Observed at (about 14 hours ago)
Identifier LHPP
LHPP 052045Z AUTO 12003KT 100V160 CAVOK 12/08 Q1028
From batch tds/metars/production/2022/10/5/h21_m27_metars.cache.csv.gz
Observed at (about 15 hours ago)
Identifier LHPP
LHPP 052015Z AUTO 11005KT 080V140 CAVOK 11/08 Q1028
From batch tds/metars/production/2022/10/5/h20_m57_metars.cache.csv.gz
Observed at (about 15 hours ago)
Identifier LHPP
LHPP 051945Z AUTO 11005KT CAVOK 12/09 Q1028
From batch tds/metars/production/2022/10/5/h20_m27_metars.cache.csv.gz
Observed at (about 16 hours ago)
Identifier LHPP
LHPP 051915Z AUTO 11004KT CAVOK 12/09 Q1028
From batch tds/metars/production/2022/10/5/h19_m49_metars.cache.csv.gz
Observed at (about 16 hours ago)
Identifier LHPP
LHPP 051845Z AUTO 10004KT CAVOK 13/08 Q1028
From batch tds/metars/production/2022/10/5/h19_m23_metars.cache.csv.gz
Observed at (about 17 hours ago)
Identifier LHPP
LHPP 051815Z AUTO 12005KT CAVOK 13/08 Q1027
From batch tds/metars/production/2022/10/5/h18_m53_metars.cache.csv.gz
Observed at (about 17 hours ago)
Identifier LHPP
LHPP 051745Z AUTO 13004KT CAVOK 14/08 Q1027
From batch tds/metars/production/2022/10/5/h18_m26_metars.cache.csv.gz
Observed at (about 18 hours ago)
Identifier LHPP
LHPP 051715Z AUTO 13005KT CAVOK 14/08 Q1027
From batch tds/metars/production/2022/10/5/h17_m55_metars.cache.csv.gz
Observed at (about 18 hours ago)
Identifier LHPP
LHPP 051645Z AUTO 15006KT CAVOK 13/09 Q1027
From batch tds/metars/production/2022/10/5/h17_m26_metars.cache.csv.gz
Observed at (about 19 hours ago)
Identifier LHPP
LHPP 051615Z AUTO 15006KT CAVOK 14/09 Q1027
From batch tds/metars/production/2022/10/5/h16_m57_metars.cache.csv.gz
Observed at (about 19 hours ago)
Identifier LHPP
LHPP 051545Z AUTO 15005KT CAVOK 15/09 Q1027
From batch tds/metars/production/2022/10/5/h16_m21_metars.cache.csv.gz
Observed at (about 20 hours ago)
Identifier LHPP
LHPP 051515Z AUTO 15006KT CAVOK 16/09 Q1027
From batch tds/metars/production/2022/10/5/h15_m53_metars.cache.csv.gz
Observed at (about 20 hours ago)
Identifier LHPP
LHPP 051445Z AUTO 15007KT CAVOK 17/09 Q1027
From batch tds/metars/production/2022/10/5/h15_m24_metars.cache.csv.gz
Observed at (about 21 hours ago)
Identifier LHPP
LHPP 051415Z AUTO 16007KT 140V200 CAVOK 18/09 Q1027
From batch tds/metars/production/2022/10/5/h14_m58_metars.cache.csv.gz
Observed at (about 21 hours ago)
Identifier LHPP
LHPP 051345Z AUTO 15007KT CAVOK 18/08 Q1028
From batch tds/metars/production/2022/10/5/h14_m27_metars.cache.csv.gz
Observed at (about 22 hours ago)
Identifier LHPP
LHPP 051315Z AUTO 15006G16KT 100V200 CAVOK 18/08 Q1028
From batch tds/metars/production/2022/10/5/h13_m57_metars.cache.csv.gz
Observed at (about 22 hours ago)
Identifier LHPP
LHPP 051245Z AUTO 15006KT 110V190 CAVOK 18/07 Q1028
From batch tds/metars/production/2022/10/5/h13_m28_metars.cache.csv.gz
Observed at (about 23 hours ago)
Identifier LHPP
LHPP 051215Z AUTO 14005KT 090V180 CAVOK 18/08 Q1028
From batch tds/metars/production/2022/10/5/h12_m57_metars.cache.csv.gz
Observed at (about 23 hours ago)
Identifier LHPP
LHPP 051145Z AUTO 16005KT 110V210 CAVOK 18/08 Q1028
From batch tds/metars/production/2022/10/5/h12_m29_metars.cache.csv.gz
Observed at (about 24 hours ago)
Identifier LHPP
talk